createdAt,value
2019-03-27T00:00:04.446Z,955.84
2019-03-27T00:02:30.777Z,955.78
2019-03-27T00:04:57.079Z,955.78
2019-03-27T00:07:23.412Z,955.77
2019-03-27T00:09:49.735Z,955.71
2019-03-27T00:12:16.044Z,955.74
2019-03-27T00:14:42.355Z,955.71
2019-03-27T00:17:08.954Z,955.69
2019-03-27T00:19:35.264Z,955.66
2019-03-27T00:22:01.575Z,955.65
2019-03-27T00:24:27.900Z,955.63
2019-03-27T00:26:54.220Z,955.66
2019-03-27T00:29:20.539Z,955.69
2019-03-27T00:31:46.942Z,955.65
2019-03-27T00:34:13.213Z,955.66
2019-03-27T00:36:39.523Z,955.62
2019-03-27T00:39:05.850Z,955.70
2019-03-27T00:41:32.156Z,955.59
2019-03-27T00:43:58.477Z,955.67
2019-03-27T00:46:24.785Z,955.68
2019-03-27T00:48:51.095Z,955.63
2019-03-27T00:51:17.444Z,955.61
2019-03-27T00:53:45.100Z,955.63
2019-03-27T00:56:10.275Z,955.67
2019-03-27T00:58:36.588Z,955.68
2019-03-27T01:01:02.903Z,955.69
2019-03-27T01:03:29.210Z,955.70
2019-03-27T01:05:55.518Z,955.68
2019-03-27T01:08:21.832Z,955.80
2019-03-27T01:10:48.158Z,955.73
2019-03-27T01:13:14.537Z,955.72
2019-03-27T01:15:40.877Z,955.68
2019-03-27T01:18:07.184Z,955.80
2019-03-27T01:20:33.513Z,955.76
2019-03-27T01:22:59.849Z,955.80
2019-03-27T01:25:26.172Z,955.87
2019-03-27T01:27:52.505Z,955.78
2019-03-27T01:30:18.800Z,955.84
2019-03-27T01:32:45.113Z,955.87
2019-03-27T01:35:11.425Z,955.88
2019-03-27T01:37:38.748Z,955.94
2019-03-27T01:40:05.067Z,955.95
2019-03-27T01:42:31.394Z,955.97
2019-03-27T01:44:57.704Z,955.96
2019-03-27T01:47:24.088Z,956.01
2019-03-27T01:49:50.403Z,956.02
2019-03-27T01:52:16.715Z,956.05
2019-03-27T01:54:43.027Z,956.08
2019-03-27T01:57:09.332Z,956.08
2019-03-27T01:59:35.645Z,956.07
2019-03-27T02:02:01.961Z,956.13
2019-03-27T02:04:28.273Z,956.11
2019-03-27T02:06:54.590Z,956.09
2019-03-27T02:09:20.899Z,955.92
2019-03-27T02:11:47.214Z,956.13
2019-03-27T02:14:13.525Z,956.18
2019-03-27T02:16:39.855Z,956.12
2019-03-27T02:19:06.161Z,956.17
2019-03-27T02:21:32.469Z,956.18
2019-03-27T02:23:58.782Z,956.18
2019-03-27T02:26:25.087Z,956.26
2019-03-27T02:28:51.396Z,956.19
2019-03-27T02:31:17.892Z,956.25
2019-03-27T02:33:44.274Z,956.25
2019-03-27T02:36:10.585Z,956.27
2019-03-27T02:38:36.906Z,956.33
2019-03-27T02:41:03.211Z,956.38
2019-03-27T02:43:29.516Z,956.45
2019-03-27T02:45:55.825Z,956.41
2019-03-27T02:48:22.137Z,956.43
2019-03-27T02:50:48.445Z,956.45
2019-03-27T02:53:14.758Z,956.46
2019-03-27T02:55:41.067Z,956.46
2019-03-27T02:58:07.369Z,956.52
2019-03-27T03:00:33.699Z,956.49
2019-03-27T03:02:59.989Z,956.55
2019-03-27T03:05:26.329Z,956.59
2019-03-27T03:07:52.628Z,956.59
2019-03-27T03:10:18.924Z,956.60
2019-03-27T03:12:45.233Z,956.58
2019-03-27T03:15:11.554Z,956.62
2019-03-27T03:17:38.110Z,956.64
2019-03-27T03:20:04.410Z,956.68
2019-03-27T03:22:30.739Z,956.65
2019-03-27T03:24:57.049Z,956.67
2019-03-27T03:27:23.359Z,956.68
2019-03-27T03:29:49.667Z,956.69
2019-03-27T03:32:15.977Z,956.73
2019-03-27T03:34:42.297Z,956.70
2019-03-27T03:37:08.593Z,956.74
2019-03-27T03:39:34.922Z,956.74
2019-03-27T03:42:01.243Z,956.74
2019-03-27T03:44:27.552Z,956.79
2019-03-27T03:46:59.920Z,956.84
2019-03-27T03:49:20.146Z,956.84
2019-03-27T03:51:46.448Z,956.87
2019-03-27T03:54:12.807Z,956.87
2019-03-27T03:56:39.071Z,956.87
2019-03-27T03:59:05.372Z,956.90
2019-03-27T04:01:31.683Z,956.93
2019-03-27T04:03:57.993Z,956.95
2019-03-27T04:06:24.329Z,956.93
2019-03-27T04:08:50.633Z,956.99
2019-03-27T04:11:16.935Z,957.12
2019-03-27T04:13:43.394Z,957.08
2019-03-27T04:16:09.553Z,957.07
2019-03-27T04:18:35.887Z,957.07
2019-03-27T04:21:02.247Z,957.05
2019-03-27T04:23:28.544Z,957.08
2019-03-27T04:26:09.267Z,957.07
2019-03-27T04:28:21.198Z,957.15
2019-03-27T04:30:47.504Z,957.20
2019-03-27T04:33:13.812Z,957.13
2019-03-27T04:35:40.115Z,957.13
2019-03-27T04:38:06.456Z,957.20
2019-03-27T04:40:32.766Z,957.26
2019-03-27T04:42:59.081Z,957.32
2019-03-27T04:45:25.395Z,957.36
2019-03-27T04:47:51.705Z,957.39
2019-03-27T04:50:18.017Z,957.41
2019-03-27T04:52:44.324Z,957.44
2019-03-27T04:55:10.634Z,957.47
2019-03-27T04:57:36.949Z,957.52
2019-03-27T05:00:03.279Z,957.51
2019-03-27T05:02:29.585Z,957.61
2019-03-27T05:04:55.898Z,957.56
2019-03-27T05:07:22.207Z,957.65
2019-03-27T05:09:48.513Z,957.65
2019-03-27T05:12:14.905Z,957.62
2019-03-27T05:14:41.182Z,957.67
2019-03-27T05:17:07.488Z,957.71
2019-03-27T05:19:33.837Z,957.72
2019-03-27T05:22:00.142Z,957.76
2019-03-27T05:24:26.473Z,957.76
2019-03-27T05:26:52.955Z,957.73
2019-03-27T05:29:19.262Z,957.68
2019-03-27T05:31:46.335Z,957.80
2019-03-27T05:34:12.661Z,957.73
2019-03-27T05:36:38.971Z,957.79
2019-03-27T05:39:05.281Z,957.76
2019-03-27T05:41:31.593Z,957.82
2019-03-27T05:43:58.071Z,957.81
2019-03-27T05:46:26.548Z,957.87
2019-03-27T05:48:50.685Z,957.90
2019-03-27T05:51:16.990Z,957.88
2019-03-27T05:53:43.296Z,957.88
2019-03-27T05:56:09.636Z,957.88
2019-03-27T05:58:35.995Z,957.92
2019-03-27T06:01:02.303Z,957.89
2019-03-27T06:03:28.607Z,957.91
2019-03-27T06:05:54.952Z,957.98
2019-03-27T06:08:21.252Z,957.87
2019-03-27T06:10:47.559Z,957.94
2019-03-27T06:13:13.898Z,957.96
2019-03-27T06:15:40.208Z,957.95
2019-03-27T06:18:12.969Z,958.04
2019-03-27T06:20:32.889Z,958.07
2019-03-27T06:22:59.197Z,958.07
2019-03-27T06:25:25.516Z,958.05
2019-03-27T06:27:51.926Z,958.07
2019-03-27T06:30:18.225Z,958.09
2019-03-27T06:32:44.572Z,958.12
2019-03-27T06:35:10.885Z,958.13
2019-03-27T06:37:37.202Z,958.18
2019-03-27T06:40:03.511Z,958.12
2019-03-27T06:42:30.083Z,958.15
2019-03-27T06:44:56.478Z,958.09
2019-03-27T06:47:22.789Z,958.16
2019-03-27T06:49:49.108Z,958.24
2019-03-27T06:52:15.417Z,958.24
2019-03-27T06:54:41.744Z,958.23
2019-03-27T06:57:08.059Z,958.23
2019-03-27T06:59:34.397Z,958.19
2019-03-27T07:02:00.701Z,958.24
2019-03-27T07:04:27.031Z,958.24
2019-03-27T07:06:53.327Z,958.21
2019-03-27T07:09:19.643Z,958.18
2019-03-27T07:11:45.957Z,958.21
2019-03-27T07:14:12.264Z,958.20
2019-03-27T07:16:38.594Z,958.24
2019-03-27T07:19:04.914Z,958.26
2019-03-27T07:21:31.227Z,958.24
2019-03-27T07:23:57.584Z,958.21
2019-03-27T07:26:23.895Z,958.18
2019-03-27T07:28:50.223Z,958.19
2019-03-27T07:31:16.527Z,958.18
2019-03-27T07:33:42.837Z,958.17
2019-03-27T07:36:09.146Z,958.16
2019-03-27T07:38:35.460Z,958.18
2019-03-27T07:41:01.762Z,958.15
2019-03-27T07:43:28.207Z,958.16
2019-03-27T07:45:54.506Z,958.24
2019-03-27T07:48:20.829Z,958.15
2019-03-27T07:50:47.130Z,958.14
2019-03-27T07:53:13.458Z,958.04
2019-03-27T07:55:39.838Z,958.08
2019-03-27T07:58:06.148Z,958.17
2019-03-27T08:00:32.468Z,958.15
2019-03-27T08:02:58.787Z,958.20
2019-03-27T08:05:25.216Z,958.18
2019-03-27T08:07:51.437Z,958.22
2019-03-27T08:10:17.748Z,958.23
2019-03-27T08:12:44.126Z,958.22
2019-03-27T08:15:10.428Z,958.19
2019-03-27T08:17:36.732Z,958.22
2019-03-27T08:20:03.039Z,958.22
2019-03-27T08:22:29.364Z,958.24
2019-03-27T08:24:55.666Z,958.22
2019-03-27T08:27:21.973Z,958.22
2019-03-27T08:29:48.290Z,958.22
2019-03-27T08:32:14.596Z,958.28
2019-03-27T08:34:40.910Z,958.27
2019-03-27T08:37:07.321Z,958.22
2019-03-27T08:39:33.620Z,958.26
2019-03-27T08:41:59.925Z,958.14
2019-03-27T08:44:26.238Z,958.12
2019-03-27T08:46:52.553Z,958.10
2019-03-27T08:49:22.290Z,958.06
2019-03-27T08:51:45.199Z,958.02
2019-03-27T08:54:11.504Z,958.08
2019-03-27T08:56:37.831Z,958.06
2019-03-27T08:59:04.136Z,958.06
2019-03-27T09:01:30.441Z,958.10
2019-03-27T09:03:56.752Z,958.15
2019-03-27T09:06:33.012Z,958.12
2019-03-27T09:08:49.376Z,958.10
2019-03-27T09:11:15.707Z,957.98
2019-03-27T09:13:42.024Z,957.95
2019-03-27T09:16:08.335Z,958.05
2019-03-27T09:18:34.644Z,958.05
2019-03-27T09:21:00.957Z,958.04
2019-03-27T09:23:27.259Z,958.06
2019-03-27T09:25:53.563Z,958.05
2019-03-27T09:28:19.878Z,958.01
2019-03-27T09:30:46.191Z,957.97
2019-03-27T09:33:12.526Z,957.97
2019-03-27T09:35:38.836Z,957.97
2019-03-27T09:38:05.160Z,957.98
2019-03-27T09:40:31.451Z,957.98
2019-03-27T09:42:57.759Z,957.98
2019-03-27T09:45:24.073Z,957.95
2019-03-27T09:47:50.396Z,957.95
2019-03-27T09:50:16.728Z,957.86
2019-03-27T09:52:43.053Z,957.97
2019-03-27T09:55:09.366Z,957.92
2019-03-27T09:57:35.668Z,957.95
2019-03-27T10:00:01.984Z,957.95
2019-03-27T10:02:28.296Z,957.83
2019-03-27T10:04:56.079Z,957.92
2019-03-27T10:07:20.908Z,957.94
2019-03-27T10:09:50.211Z,957.82
2019-03-27T10:12:13.523Z,957.69
2019-03-27T10:14:39.837Z,957.66
2019-03-27T10:17:06.184Z,957.59
2019-03-27T10:19:32.488Z,957.73
2019-03-27T10:21:58.794Z,957.59
2019-03-27T10:24:25.106Z,957.61
2019-03-27T10:26:51.419Z,957.62
2019-03-27T10:29:17.728Z,957.56
2019-03-27T10:31:44.038Z,957.58
2019-03-27T10:34:10.352Z,957.53
2019-03-27T10:36:36.661Z,957.45
2019-03-27T10:39:02.993Z,957.47
2019-03-27T10:41:29.378Z,957.48
2019-03-27T10:43:55.611Z,957.46
2019-03-27T10:46:21.986Z,957.42
2019-03-27T10:48:52.857Z,957.34
2019-03-27T10:51:14.582Z,957.38
2019-03-27T10:53:40.893Z,957.41
2019-03-27T10:56:07.201Z,957.34
2019-03-27T10:58:33.516Z,957.26
2019-03-27T11:00:59.816Z,957.24
2019-03-27T11:03:26.135Z,957.21
2019-03-27T11:05:52.428Z,957.15
2019-03-27T11:08:18.747Z,957.10
2019-03-27T11:10:45.055Z,957.13
2019-03-27T11:13:11.409Z,957.11
2019-03-27T11:15:37.717Z,957.06
2019-03-27T11:18:04.022Z,957.10
2019-03-27T11:20:31.500Z,957.03
2019-03-27T11:22:56.706Z,957.02
2019-03-27T11:25:23.029Z,956.99
2019-03-27T11:27:49.348Z,957.00
2019-03-27T11:30:15.662Z,957.06
2019-03-27T11:32:41.967Z,957.06
2019-03-27T11:35:08.310Z,956.98
2019-03-27T11:37:34.607Z,956.91
2019-03-27T11:40:00.913Z,956.99
2019-03-27T11:42:27.224Z,956.94
2019-03-27T11:44:53.529Z,956.86
2019-03-27T11:47:19.841Z,956.90
2019-03-27T11:49:46.149Z,956.87
2019-03-27T11:52:12.460Z,956.79
2019-03-27T11:54:39.108Z,956.75
2019-03-27T11:57:05.461Z,956.74
2019-03-27T11:59:31.769Z,956.65
2019-03-27T12:01:58.103Z,956.67
2019-03-27T12:04:24.412Z,956.64
2019-03-27T12:06:50.720Z,956.61
2019-03-27T12:09:17.093Z,956.61
2019-03-27T12:11:43.349Z,956.61
2019-03-27T12:14:12.169Z,956.57
2019-03-27T12:16:35.964Z,956.58
2019-03-27T12:19:02.393Z,956.47
2019-03-27T12:21:28.727Z,956.53
2019-03-27T12:23:55.033Z,956.57
2019-03-27T12:26:21.355Z,956.45
2019-03-27T12:28:47.659Z,956.54
2019-03-27T12:31:13.970Z,956.42
2019-03-27T12:33:40.272Z,956.45
2019-03-27T12:36:06.607Z,956.27
2019-03-27T12:38:32.959Z,956.24
2019-03-27T12:40:59.345Z,956.32
2019-03-27T12:43:25.642Z,956.35
2019-03-27T12:45:51.949Z,956.36
2019-03-27T12:48:18.265Z,956.31
2019-03-27T12:50:44.641Z,956.35
2019-03-27T12:53:10.889Z,956.27
2019-03-27T12:55:37.191Z,956.18
2019-03-27T12:58:03.565Z,956.29
2019-03-27T13:00:29.873Z,956.20
2019-03-27T13:02:56.181Z,956.24
2019-03-27T13:05:22.511Z,956.14
2019-03-27T13:07:50.283Z,956.18
2019-03-27T13:10:15.140Z,956.25
2019-03-27T13:12:41.453Z,956.22
2019-03-27T13:15:07.761Z,956.22
2019-03-27T13:17:34.437Z,956.21
2019-03-27T13:20:00.518Z,956.28
2019-03-27T13:22:26.690Z,956.26
2019-03-27T13:24:53.025Z,956.21
2019-03-27T13:27:19.334Z,956.14
2019-03-27T13:29:45.640Z,956.13
2019-03-27T13:32:11.953Z,956.17
2019-03-27T13:34:38.262Z,956.15
2019-03-27T13:37:04.573Z,956.10
2019-03-27T13:39:30.876Z,956.10
2019-03-27T13:41:57.203Z,956.17
2019-03-27T13:44:36.305Z,956.12
2019-03-27T13:46:49.885Z,956.11
2019-03-27T13:49:16.126Z,956.12
2019-03-27T13:51:42.436Z,956.17
2019-03-27T13:54:08.745Z,956.22
2019-03-27T13:56:35.054Z,956.23
2019-03-27T13:59:01.364Z,956.18
2019-03-27T14:01:27.674Z,956.22
2019-03-27T14:03:53.991Z,956.20
2019-03-27T14:06:20.298Z,956.23
2019-03-27T14:08:46.643Z,956.27
2019-03-27T14:11:12.917Z,956.27
2019-03-27T14:13:39.226Z,956.26
2019-03-27T14:16:05.557Z,956.23
2019-03-27T14:18:31.877Z,956.20
2019-03-27T14:20:58.202Z,956.24
2019-03-27T14:23:24.504Z,956.23
2019-03-27T14:25:50.817Z,956.27
2019-03-27T14:28:17.120Z,956.32
2019-03-27T14:30:43.427Z,956.30
2019-03-27T14:33:09.756Z,956.25
2019-03-27T14:35:36.069Z,956.30
2019-03-27T14:38:02.392Z,956.31
2019-03-27T14:40:28.700Z,956.32
2019-03-27T14:42:55.007Z,956.36
2019-03-27T14:45:21.317Z,956.47
2019-03-27T14:47:47.644Z,956.40
2019-03-27T14:50:13.955Z,956.35
2019-03-27T14:52:40.272Z,956.40
2019-03-27T14:55:06.628Z,956.43
2019-03-27T14:57:32.935Z,956.44
2019-03-27T14:59:59.536Z,956.40
2019-03-27T15:02:25.841Z,956.47
2019-03-27T15:04:52.148Z,956.49
2019-03-27T15:07:18.480Z,956.49
2019-03-27T15:09:44.791Z,956.51
2019-03-27T15:12:11.104Z,956.52
2019-03-27T15:14:37.438Z,956.53
2019-03-27T15:17:03.737Z,956.58
2019-03-27T15:19:30.035Z,956.57
2019-03-27T15:21:56.373Z,956.57
2019-03-27T15:24:22.681Z,956.61
2019-03-27T15:26:48.988Z,956.65
2019-03-27T15:29:15.325Z,956.57
2019-03-27T15:31:41.652Z,956.62
2019-03-27T15:34:07.963Z,956.71
2019-03-27T15:36:34.481Z,956.68
2019-03-27T15:39:00.817Z,956.69
2019-03-27T15:41:27.123Z,956.66
2019-03-27T15:43:53.435Z,956.68
2019-03-27T15:46:19.812Z,956.74
2019-03-27T15:48:46.138Z,956.76
2019-03-27T15:51:12.453Z,956.73
2019-03-27T15:53:38.761Z,956.78
2019-03-27T15:56:05.084Z,956.79
2019-03-27T15:58:31.397Z,956.84
2019-03-27T16:00:57.705Z,956.95
2019-03-27T16:03:24.008Z,956.98
2019-03-27T16:05:50.324Z,956.98
2019-03-27T16:08:16.624Z,957.01
2019-03-27T16:10:43.012Z,957.03
2019-03-27T16:13:09.327Z,957.03
2019-03-27T16:15:37.221Z,957.00
2019-03-27T16:18:01.944Z,956.97
2019-03-27T16:20:28.248Z,957.03
2019-03-27T16:22:54.550Z,957.10
2019-03-27T16:25:20.863Z,957.09
2019-03-27T16:27:47.175Z,957.13
2019-03-27T16:30:16.880Z,957.20
2019-03-27T16:32:39.792Z,957.16
2019-03-27T16:35:06.100Z,957.31
2019-03-27T16:37:32.434Z,957.34
2019-03-27T16:39:58.750Z,957.34
2019-03-27T16:42:25.060Z,957.31
2019-03-27T16:44:51.375Z,957.38
2019-03-27T16:47:17.678Z,957.35
2019-03-27T16:49:43.989Z,957.37
2019-03-27T16:52:10.335Z,957.47
2019-03-27T16:54:36.651Z,957.52
2019-03-27T16:57:02.986Z,957.56
2019-03-27T16:59:29.345Z,957.55
2019-03-27T17:01:55.655Z,957.63
2019-03-27T17:04:21.959Z,957.66
2019-03-27T17:06:48.274Z,957.68
2019-03-27T17:09:14.582Z,957.73
2019-03-27T17:11:40.920Z,957.76
2019-03-27T17:14:07.297Z,957.85
2019-03-27T17:16:33.601Z,957.89
2019-03-27T17:18:59.909Z,957.94
2019-03-27T17:21:26.227Z,957.99
2019-03-27T17:23:52.575Z,958.06
2019-03-27T17:26:18.888Z,958.09
2019-03-27T17:28:45.203Z,958.13
2019-03-27T17:31:11.500Z,958.25
2019-03-27T17:33:37.813Z,958.18
2019-03-27T17:36:04.283Z,958.24
2019-03-27T17:38:30.447Z,958.27
2019-03-27T17:40:56.762Z,958.39
2019-03-27T17:43:23.079Z,958.42
2019-03-27T17:45:49.389Z,958.49
2019-03-27T17:48:15.714Z,958.53
2019-03-27T17:50:42.044Z,958.56
2019-03-27T17:53:08.351Z,958.57
2019-03-27T17:55:34.670Z,958.59
2019-03-27T17:58:00.972Z,958.69
2019-03-27T18:00:27.280Z,958.77
2019-03-27T18:02:53.626Z,958.78
2019-03-27T18:05:19.962Z,958.73
2019-03-27T18:07:46.282Z,958.88
2019-03-27T18:10:12.589Z,958.94
2019-03-27T18:12:38.919Z,958.98
2019-03-27T18:15:05.225Z,959.00
2019-03-27T18:17:31.552Z,958.96
2019-03-27T18:19:57.861Z,959.01
2019-03-27T18:22:24.202Z,959.09
2019-03-27T18:24:50.568Z,959.05
2019-03-27T18:27:16.896Z,959.12
2019-03-27T18:29:43.340Z,959.12
2019-03-27T18:32:09.736Z,959.09
2019-03-27T18:34:37.517Z,959.12
2019-03-27T18:37:03.944Z,959.10
2019-03-27T18:39:30.293Z,959.14
2019-03-27T18:41:56.725Z,959.16
2019-03-27T18:44:22.996Z,959.17
2019-03-27T18:46:49.306Z,959.18
2019-03-27T18:49:15.607Z,959.25
2019-03-27T18:51:41.918Z,959.13
2019-03-27T18:54:08.231Z,959.21
2019-03-27T18:56:34.572Z,959.17
2019-03-27T18:59:00.892Z,959.11
2019-03-27T19:01:27.195Z,959.14
2019-03-27T19:03:53.503Z,959.20
2019-03-27T19:06:19.817Z,959.18
2019-03-27T19:08:46.265Z,959.24
2019-03-27T19:11:12.534Z,959.24
2019-03-27T19:13:38.876Z,959.24
2019-03-27T19:16:05.174Z,959.23
2019-03-27T19:18:31.505Z,959.23
2019-03-27T19:20:57.810Z,959.20
2019-03-27T19:23:24.117Z,959.18
2019-03-27T19:25:50.427Z,959.21
2019-03-27T19:28:16.727Z,959.19
2019-03-27T19:30:43.065Z,959.24
2019-03-27T19:33:09.370Z,959.26
2019-03-27T19:35:35.702Z,959.29
2019-03-27T19:38:02.009Z,959.27
2019-03-27T19:40:28.319Z,959.28
2019-03-27T19:42:54.624Z,959.31
2019-03-27T19:45:20.954Z,959.32
2019-03-27T19:47:47.265Z,959.29
2019-03-27T19:50:13.600Z,959.37
2019-03-27T19:52:39.906Z,959.38
2019-03-27T19:55:06.239Z,959.36
2019-03-27T19:57:32.546Z,959.45
2019-03-27T19:59:58.863Z,959.44
2019-03-27T20:02:25.168Z,959.44
2019-03-27T20:04:51.484Z,959.39
2019-03-27T20:07:17.818Z,959.44
2019-03-27T20:09:44.123Z,959.45
2019-03-27T20:12:10.432Z,959.42
2019-03-27T20:14:36.743Z,959.49
2019-03-27T20:17:03.051Z,959.40
2019-03-27T20:19:29.350Z,959.43
2019-03-27T20:21:55.657Z,959.57
2019-03-27T20:24:21.958Z,959.58
2019-03-27T20:26:48.271Z,959.57
2019-03-27T20:29:14.576Z,959.55
2019-03-27T20:31:40.889Z,959.58
2019-03-27T20:34:07.197Z,959.64
2019-03-27T20:36:33.502Z,959.68
2019-03-27T20:38:59.801Z,959.75
2019-03-27T20:41:26.133Z,959.78
2019-03-27T20:43:52.438Z,959.79
2019-03-27T20:46:24.993Z,959.76
2019-03-27T20:48:45.047Z,959.82
2019-03-27T20:51:11.358Z,959.84
2019-03-27T20:53:37.663Z,959.86
2019-03-27T20:56:03.966Z,959.92
2019-03-27T20:58:30.281Z,959.87
2019-03-27T21:00:56.596Z,959.94
2019-03-27T21:03:22.922Z,959.99
2019-03-27T21:05:49.230Z,959.97
2019-03-27T21:08:15.531Z,959.96
2019-03-27T21:10:41.838Z,959.96
2019-03-27T21:13:08.147Z,959.97
2019-03-27T21:15:34.458Z,960.00
2019-03-27T21:18:00.767Z,959.96
2019-03-27T21:20:27.077Z,960.04
2019-03-27T21:22:53.393Z,959.98
2019-03-27T21:25:19.696Z,959.99
2019-03-27T21:27:46.025Z,960.09
2019-03-27T21:30:12.339Z,960.07
2019-03-27T21:32:38.651Z,960.05
2019-03-27T21:35:05.038Z,960.13
2019-03-27T21:37:31.344Z,960.12
2019-03-27T21:39:57.654Z,960.18
2019-03-27T21:42:23.955Z,960.17
2019-03-27T21:44:50.260Z,960.18
2019-03-27T21:47:16.576Z,960.19
2019-03-27T21:49:42.882Z,960.22
2019-03-27T21:52:09.183Z,960.19
2019-03-27T21:54:35.488Z,960.20
2019-03-27T21:57:01.793Z,960.25
2019-03-27T21:59:28.098Z,960.24
2019-03-27T22:01:54.409Z,960.15
2019-03-27T22:04:20.729Z,960.18
2019-03-27T22:06:47.043Z,960.25
2019-03-27T22:09:13.339Z,960.26
2019-03-27T22:11:39.725Z,960.22
2019-03-27T22:14:06.027Z,960.26
2019-03-27T22:16:32.340Z,960.21
2019-03-27T22:18:58.640Z,960.30
2019-03-27T22:21:24.942Z,960.28
2019-03-27T22:23:51.269Z,960.24
2019-03-27T22:26:17.585Z,960.24
2019-03-27T22:28:43.885Z,960.36
2019-03-27T22:31:10.186Z,960.33
2019-03-27T22:33:36.802Z,960.33
2019-03-27T22:36:03.109Z,960.45
2019-03-27T22:38:29.415Z,960.47
2019-03-27T22:40:55.715Z,960.44
2019-03-27T22:43:22.034Z,960.41
2019-03-27T22:45:48.350Z,960.51
2019-03-27T22:48:14.670Z,960.50
2019-03-27T22:50:40.977Z,960.58
2019-03-27T22:53:07.279Z,960.58
2019-03-27T22:55:33.590Z,960.55
2019-03-27T22:57:59.899Z,960.57
2019-03-27T23:00:26.203Z,960.52
2019-03-27T23:02:52.503Z,960.48
2019-03-27T23:05:19.132Z,960.53
2019-03-27T23:07:45.434Z,960.48
2019-03-27T23:10:11.741Z,960.52
2019-03-27T23:12:38.044Z,960.51
2019-03-27T23:15:04.468Z,960.55
2019-03-27T23:17:30.898Z,960.55
2019-03-27T23:19:57.196Z,960.58
2019-03-27T23:22:23.503Z,960.57
2019-03-27T23:24:52.604Z,960.55
2019-03-27T23:27:18.940Z,960.57
2019-03-27T23:29:45.272Z,960.60
2019-03-27T23:32:11.575Z,960.60
2019-03-27T23:34:37.878Z,960.60
2019-03-27T23:37:04.178Z,960.65
2019-03-27T23:39:30.488Z,960.59
2019-03-27T23:41:56.792Z,960.63
2019-03-27T23:44:23.103Z,960.64
2019-03-27T23:46:49.412Z,960.63
2019-03-27T23:49:15.752Z,960.65
2019-03-27T23:51:42.055Z,960.62
2019-03-27T23:54:08.375Z,960.62
2019-03-27T23:56:34.679Z,960.57
2019-03-27T23:59:00.983Z,960.58
